Time;durP1;ratioP1;P1;durP2;ratioP2;P2;SDS_P1;SDS_P2;PMS_P1;PMS_P2;Temp;Humidity;BMP_temperature;BMP_pressure;BME280_temperature;BME280_humidity;BME280_pressure;Samples;Min_cycle;Max_cycle;Signal;HPM_P1;HPM_P2
2022/06/18 00:01:51;;;;;;;9.00;6.53;;;;;;;22.55;100.00;100249.66;5033712;28;20582;-68
2022/06/18 00:04:20;;;;;;;7.40;6.53;;;;;;;22.79;100.00;100258.66;5034127;28;20220;-68
2022/06/18 00:06:53;;;;;;;9.48;6.57;;;;;;;22.69;100.00;100258.94;5025957;28;20200;-68
2022/06/18 00:09:22;;;;;;;8.88;6.55;;;;;;;22.68;100.00;100256.34;5032306;28;20196;-68
2022/06/18 00:14:35;;;;;;;7.55;6.82;;;;;;;22.65;100.00;100288.97;5033161;28;20251;-68
2022/06/18 00:17:11;;;;;;;9.27;6.85;;;;;;;22.73;100.00;100272.91;5033225;28;20192;-68
2022/06/18 00:19:38;;;;;;;8.55;6.28;;;;;;;22.50;100.00;100283.31;5032353;28;20672;-68
2022/06/18 00:22:05;;;;;;;10.05;6.55;;;;;;;22.35;100.00;100252.06;5013818;28;20208;-68
2022/06/18 00:24:32;;;;;;;12.60;6.75;;;;;;;22.70;100.00;100291.53;5032681;28;20203;-68
2022/06/18 00:26:59;;;;;;;8.38;6.32;;;;;;;22.36;100.00;100238.81;5033158;28;20199;-68
2022/06/18 00:29:26;;;;;;;10.85;7.38;;;;;;;22.64;100.00;100300.50;5032700;28;20207;-68
2022/06/18 00:31:53;;;;;;;7.35;6.65;;;;;;;22.49;100.00;100297.44;5031556;28;20250;-68
2022/06/18 00:34:21;;;;;;;11.35;7.28;;;;;;;22.76;100.00;100290.47;5032101;28;20252;-68
2022/06/18 00:36:48;;;;;;;10.30;7.00;;;;;;;22.58;100.00;100297.19;5032779;28;20266;-68
2022/06/18 00:39:17;;;;;;;10.80;7.30;;;;;;;22.67;100.00;100296.91;5032725;28;20211;-68
2022/06/18 00:41:46;;;;;;;10.27;7.22;;;;;;;22.72;100.00;100309.06;5032553;28;20207;-68
2022/06/18 00:44:23;;;;;;;12.68;7.00;;;;;;;22.81;100.00;100312.34;5032805;28;20211;-68
2022/06/18 00:47:00;;;;;;;10.18;7.28;;;;;;;22.99;100.00;100314.41;4997913;28;20204;-68
2022/06/18 00:49:38;;;;;;;12.40;7.35;;;;;;;22.98;100.00;100324.13;5032358;28;20196;-68
2022/06/18 00:52:13;;;;;;;9.50;7.55;;;;;;;22.95;100.00;100305.69;5032584;28;20266;-69
2022/06/18 00:54:45;;;;;;;9.57;6.97;;;;;;;22.94;100.00;100327.75;5031982;28;20211;-68
2022/06/18 00:57:19;;;;;;;10.25;7.07;;;;;;;22.90;100.00;100328.78;5032443;28;20200;-68
2022/06/18 00:59:51;;;;;;;8.27;7.43;;;;;;;22.91;100.00;100330.50;5032809;28;20208;-68
2022/06/18 01:02:21;;;;;;;11.88;6.70;;;;;;;22.82;100.00;100311.44;5031897;28;20567;-68
2022/06/18 01:04:49;;;;;;;7.47;6.40;;;;;;;22.63;100.00;100321.66;5032677;28;20208;-68
2022/06/18 01:07:24;;;;;;;8.05;6.25;;;;;;;22.64;100.00;100313.72;5031793;28;20200;-69
2022/06/18 01:09:52;;;;;;;7.85;5.95;;;;;;;22.47;100.00;100315.13;5032478;28;20738;-68
2022/06/18 01:12:20;;;;;;;11.20;5.63;;;;;;;22.39;100.00;100319.78;5031854;28;20653;-68
2022/06/18 01:14:51;;;;;;;8.63;5.85;;;;;;;22.48;100.00;100314.19;5032161;28;20244;-68
2022/06/18 01:17:19;;;;;;;6.90;5.85;;;;;;;22.47;100.00;100279.00;5032025;28;20204;-68
2022/06/18 01:19:50;;;;;;;7.47;6.40;;;;;;;22.47;100.00;100307.19;5031862;28;20223;-68
2022/06/18 01:22:32;;;;;;;9.45;5.78;;;;;;;22.67;100.00;100318.06;5031567;28;20199;-68
2022/06/18 01:25:00;;;;;;;8.27;5.80;;;;;;;22.47;100.00;100310.72;5031559;28;20638;-68
2022/06/18 01:27:27;;;;;;;5.95;5.45;;;;;;;22.49;100.00;100314.16;5031312;28;20220;-69
2022/06/18 01:29:54;;;;;;;7.13;5.60;;;;;;;22.43;100.00;100314.34;5031568;28;20197;-69
2022/06/18 01:32:24;;;;;;;5.68;5.10;;;;;;;22.60;100.00;100311.19;5031369;28;20298;-69
2022/06/18 01:34:52;;;;;;;7.97;5.78;;;;;;;22.53;100.00;100307.88;5032055;28;20314;-68
2022/06/18 01:37:20;;;;;;;6.90;5.97;;;;;;;22.37;100.00;100289.88;5031426;28;20208;-68
2022/06/18 01:39:49;;;;;;;12.35;5.18;;;;;;;22.45;100.00;100315.16;5031022;28;20590;-68
2022/06/18 01:42:23;;;;;;;8.45;5.55;;;;;;;22.64;100.00;100315.47;5030959;28;20196;-68
2022/06/18 01:44:54;;;;;;;5.30;4.80;;;;;;;22.50;100.00;100322.97;5031270;28;20200;-68
2022/06/18 01:47:25;;;;;;;6.07;4.60;;;;;;;22.50;100.00;100336.19;5031757;28;20572;-68
2022/06/18 01:49:59;;;;;;;5.75;4.60;;;;;;;22.20;100.00;100319.44;5031637;28;20200;-68
2022/06/18 01:52:31;;;;;;;4.93;4.20;;;;;;;22.29;100.00;100339.44;5011867;28;20228;-68
2022/06/18 01:55:01;;;;;;;6.07;4.45;;;;;;;22.14;100.00;100317.84;5014758;28;20224;-68
2022/06/18 01:57:34;;;;;;;5.18;4.15;;;;;;;22.39;100.00;100346.19;5031366;28;20653;-68
2022/06/18 02:00:12;;;;;;;6.95;4.45;;;;;;;22.47;100.00;100352.13;5031608;28;20207;-68
2022/06/18 02:02:39;;;;;;;4.78;4.32;;;;;;;22.52;100.00;100372.22;5031068;28;20203;-68
2022/06/18 02:05:07;;;;;;;4.43;4.03;;;;;;;22.33;100.00;100354.31;5012820;28;20219;-68
2022/06/18 02:07:34;;;;;;;4.18;3.83;;;;;;;22.15;100.00;100339.84;5031707;28;20642;-68
2022/06/18 02:10:06;;;;;;;6.15;3.60;;;;;;;22.26;100.00;100368.59;5030773;28;20193;-68
2022/06/18 02:12:37;;;;;;;4.90;3.75;;;;;;;22.19;100.00;100363.47;5031024;28;20209;-69
2022/06/18 02:15:07;;;;;;;5.57;4.00;;;;;;;22.01;100.00;100352.56;5031148;28;20243;-68
2022/06/18 02:17:35;;;;;;;3.88;3.00;;;;;;;21.75;100.00;100340.03;4996335;28;20204;-68
2022/06/18 02:20:09;;;;;;;4.65;4.25;;;;;;;21.77;100.00;100302.09;5031204;28;20204;-68
2022/06/18 02:22:39;;;;;;;3.72;3.40;;;;;;;21.48;100.00;100306.41;5031298;28;20204;-68
2022/06/18 02:25:06;;;;;;;8.85;4.38;;;;;;;21.50;100.00;100294.94;5031183;28;20203;-68
2022/06/18 02:27:36;;;;;;;11.18;5.35;;;;;;;21.55;100.00;100286.88;4995986;28;20215;-68
2022/06/18 02:30:02;;;;;;;8.13;5.30;;;;;;;21.29;100.00;100260.31;5030594;28;20660;-68
2022/06/18 02:32:35;;;;;;;11.80;5.13;;;;;;;21.47;100.00;100271.28;4996156;28;20204;-69
2022/06/18 02:35:02;;;;;;;5.60;4.63;;;;;;;20.75;100.00;100255.47;5030277;28;20343;-68
2022/06/18 02:37:32;;;;;;;5.63;4.85;;;;;;;20.89;100.00;100253.38;5030280;28;20223;-68
2022/06/18 02:40:02;;;;;;;8.50;5.25;;;;;;;21.06;100.00;100274.03;5030914;28;20645;-68
2022/06/18 02:42:34;;;;;;;6.07;5.00;;;;;;;20.76;100.00;100258.06;5030742;28;20613;-68
2022/06/18 02:45:05;;;;;;;6.15;5.35;;;;;;;20.81;100.00;100263.22;5030908;28;20199;-68
2022/06/18 02:47:32;;;;;;;4.90;4.50;;;;;;;20.61;100.00;100292.69;5030829;28;20204;-68
2022/06/18 02:50:02;;;;;;;5.78;5.05;;;;;;;20.80;100.00;100293.13;5030241;28;20561;-68
2022/06/18 02:52:35;;;;;;;7.45;5.13;;;;;;;21.01;100.00;100326.88;5030817;28;20196;-68
2022/06/18 02:55:10;;;;;;;6.57;5.57;;;;;;;21.10;100.00;100344.28;5034104;28;20320;-69
2022/06/18 02:57:39;;;;;;;4.80;4.43;;;;;;;20.76;100.00;100337.13;5034943;28;20254;-68
2022/06/18 03:00:09;;;;;;;5.78;5.20;;;;;;;20.93;100.00;100347.31;5034843;28;20635;-68
2022/06/18 03:02:36;;;;;;;7.55;5.70;;;;;;;20.83;100.00;100334.38;5034299;28;20196;-68
2022/06/18 03:05:03;;;;;;;7.18;5.40;;;;;;;20.83;100.00;100339.66;5034471;28;20222;-68
2022/06/18 03:07:30;;;;;;;6.97;6.32;;;;;;;20.85;100.00;100333.44;5034762;28;20665;-68
2022/06/18 03:12:41;;;;;;;7.63;5.47;;;;;;;20.76;100.00;100338.94;5018984;28;20203;-68
2022/06/18 03:15:10;;;;;;;6.30;5.68;;;;;;;20.94;100.00;100337.63;5034240;28;20228;-68
2022/06/18 03:17:37;;;;;;;5.75;5.00;;;;;;;20.50;100.00;100320.16;5034329;28;20266;-68
2022/06/18 03:20:12;;;;;;;8.75;6.03;;;;;;;20.57;100.00;100316.50;5014214;28;20203;-68
2022/06/18 03:22:38;;;;;;;10.80;5.80;;;;;;;20.66;100.00;100342.63;5029026;28;20202;-69
2022/06/18 03:25:06;;;;;;;5.18;4.72;;;;;;;20.70;100.00;100346.94;5033621;28;20196;-69
2022/06/18 03:27:33;;;;;;;7.93;5.28;;;;;;;20.77;100.00;100345.91;5015526;28;20208;-69
2022/06/18 03:30:00;;;;;;;7.75;5.85;;;;;;;21.05;100.00;100368.09;5034059;28;20270;-69
2022/06/18 03:32:28;;;;;;;6.30;5.63;;;;;;;21.37;100.00;100371.81;5034306;28;20279;-69
2022/06/18 03:34:55;;;;;;;7.03;5.25;;;;;;;21.14;100.00;100369.72;5034002;28;20232;-69
2022/06/18 03:37:21;;;;;;;7.65;5.43;;;;;;;21.21;100.00;100369.53;5033624;28;20567;-68
2022/06/18 03:39:48;;;;;;;8.57;5.55;;;;;;;21.39;100.00;100372.63;5033409;28;20201;-68
2022/06/18 03:42:15;;;;;;;6.88;5.13;;;;;;;21.56;100.00;100384.50;5032039;28;20192;-69
2022/06/18 03:44:42;;;;;;;6.93;5.00;;;;;;;21.85;100.00;100380.22;5033790;28;20192;-69
2022/06/18 03:47:09;;;;;;;5.88;5.30;;;;;;;21.95;100.00;100384.41;5033774;28;20215;-69
2022/06/18 03:49:37;;;;;;;5.20;4.78;;;;;;;21.97;100.00;100393.16;5033792;28;20257;-69
2022/06/18 03:52:07;;;;;;;5.50;4.95;;;;;;;22.28;100.00;100382.63;5033851;28;20587;-69
2022/06/18 03:54:34;;;;;;;6.13;4.78;;;;;;;22.28;100.00;100395.81;5033789;28;20592;-69
2022/06/18 03:57:01;;;;;;;6.07;4.40;;;;;;;22.55;100.00;100402.97;5033970;28;20200;-69
2022/06/18 03:59:28;;;;;;;5.45;4.95;;;;;;;23.04;100.00;100408.59;5031362;28;20199;-69
2022/06/18 04:01:55;;;;;;;4.47;4.10;;;;;;;23.48;100.00;100425.72;5033604;28;20199;-70
2022/06/18 04:04:22;;;;;;;4.43;4.13;;;;;;;23.12;100.00;100417.13;5033600;28;20664;-70
2022/06/18 04:06:50;;;;;;;5.10;3.90;;;;;;;23.84;100.00;100418.34;5033408;28;20204;-70
2022/06/18 04:09:17;;;;;;;7.03;4.10;;;;;;;24.04;100.00;100422.97;5033260;28;20286;-70
2022/06/18 04:11:44;;;;;;;6.53;3.55;;;;;;;24.08;100.00;100417.50;5033638;28;20192;-67
2022/06/18 04:14:11;;;;;;;6.25;3.78;;;;;;;23.85;100.00;100428.03;5032906;28;20591;-69
2022/06/18 04:16:38;;;;;;;5.32;4.05;;;;;;;23.88;100.00;100433.22;5007694;28;20223;-69
2022/06/18 04:19:05;;;;;;;5.03;3.55;;;;;;;23.01;100.00;100435.09;5033056;28;20672;-69
2022/06/18 04:21:32;;;;;;;6.00;4.35;;;;;;;23.28;100.00;100443.13;5033017;28;20196;-68
2022/06/18 04:24:00;;;;;;;4.55;4.03;;;;;;;23.66;100.00;100441.00;5033203;28;20203;-69
2022/06/18 04:26:27;;;;;;;5.20;3.50;;;;;;;23.93;100.00;100454.28;5032742;28;20208;-68
2022/06/18 04:28:53;;;;;;;4.40;3.45;;;;;;;23.07;100.00;100456.09;5033241;28;20258;-69
2022/06/18 04:31:20;;;;;;;3.88;3.58;;;;;;;23.23;100.00;100444.13;5033122;28;20616;-69
2022/06/18 04:33:47;;;;;;;5.80;3.85;;;;;;;23.12;100.00;100440.94;5033124;28;20196;-69
2022/06/18 04:36:30;;;;;;;4.63;4.18;;;;;;;23.31;100.00;100453.59;5032979;28;20231;-69
2022/06/18 04:38:57;;;;;;;4.30;4.00;;;;;;;23.05;100.00;100457.91;5032703;28;20196;-69
2022/06/18 04:41:25;;;;;;;4.47;4.07;;;;;;;23.44;100.00;100465.56;4998020;28;20200;-69
2022/06/18 04:43:52;;;;;;;5.57;4.00;;;;;;;23.46;100.00;100469.06;5013046;28;20209;-69
2022/06/18 04:46:19;;;;;;;6.22;3.70;;;;;;;23.02;100.00;100463.31;5031459;28;20211;-69
2022/06/18 04:48:46;;;;;;;4.35;3.95;;;;;;;22.76;100.00;100476.41;5032777;28;20291;-69
2022/06/18 04:51:13;;;;;;;4.55;3.55;;;;;;;22.64;100.00;100477.59;5032493;28;20279;-69
2022/06/18 04:53:39;;;;;;;4.70;4.30;;;;;;;23.35;100.00;100484.38;5032454;28;20200;-70
2022/06/18 04:56:06;;;;;;;4.43;4.13;;;;;;;23.26;100.00;100488.16;5032579;28;20231;-71
2022/06/18 04:58:35;;;;;;;3.58;3.33;;;;;;;23.21;100.00;100490.94;5032375;28;20295;-69
2022/06/18 05:01:02;;;;;;;5.30;3.75;;;;;;;23.16;100.00;100502.56;5032830;28;20192;-68
2022/06/18 05:03:28;;;;;;;4.47;4.07;;;;;;;23.17;100.00;100478.72;5032359;28;20204;-67
2022/06/18 05:05:56;;;;;;;6.22;3.58;;;;;;;23.18;100.00;100499.00;5032123;28;20208;-69
2022/06/18 05:08:23;;;;;;;4.88;3.80;;;;;;;23.23;100.00;100506.75;5032070;28;20577;-69
2022/06/18 05:10:50;;;;;;;3.60;3.30;;;;;;;23.64;100.00;100500.25;5032487;28;20235;-69
2022/06/18 05:13:17;;;;;;;3.65;3.45;;;;;;;24.18;100.00;100530.28;5032172;28;20205;-68
2022/06/18 05:15:46;;;;;;;4.35;3.47;;;;;;;23.91;100.00;100520.53;5012903;28;20231;-68
2022/06/18 05:18:15;;;;;;;4.55;3.22;;;;;;;24.33;100.00;100522.72;5031006;28;20565;-68
2022/06/18 05:20:42;;;;;;;3.90;3.60;;;;;;;24.65;100.00;100518.00;5032071;28;20200;-68
2022/06/18 05:23:12;;;;;;;3.13;2.92;;;;;;;25.04;100.00;100526.31;5032311;28;20201;-68
2022/06/18 05:25:39;;;;;;;4.90;3.67;;;;;;;24.41;100.00;100504.75;5031674;28;20684;-68
2022/06/18 05:28:06;;;;;;;4.65;3.65;;;;;;;23.97;100.00;100525.63;5031437;28;20211;-64
2022/06/18 05:30:33;;;;;;;3.50;2.92;;;;;;;23.55;100.00;100538.44;5032103;28;20207;-66
2022/06/18 05:33:01;;;;;;;3.80;3.47;;;;;;;23.54;100.00;100542.00;5031875;28;20204;-69
2022/06/18 05:35:29;;;;;;;2.92;2.78;;;;;;;23.56;100.00;100526.09;5031987;28;20220;-68
2022/06/18 05:37:55;;;;;;;4.65;4.35;;;;;;;23.89;100.00;100543.56;4996107;28;20563;-69
2022/06/18 05:40:22;;;;;;;6.47;3.20;;;;;;;24.73;99.02;100548.69;5031636;28;20200;-69
2022/06/18 05:42:49;;;;;;;3.30;3.00;;;;;;;24.28;100.00;100546.72;5031904;28;20204;-69
2022/06/18 05:45:16;;;;;;;3.40;3.10;;;;;;;24.41;100.00;100536.56;5031276;28;20591;-69
2022/06/18 05:47:43;;;;;;;3.53;3.30;;;;;;;24.67;100.00;100536.53;5031125;28;20196;-69
2022/06/18 05:50:16;;;;;;;5.10;3.70;;;;;;;25.47;98.69;100548.63;5030832;28;20192;-69
2022/06/18 05:52:43;;;;;;;10.15;3.47;;;;;;;25.86;93.27;100554.19;5031535;28;20211;-69
2022/06/18 05:55:10;;;;;;;3.40;3.10;;;;;;;26.38;87.42;100560.88;5031042;28;20431;-69
2022/06/18 05:57:45;;;;;;;2.90;2.75;;;;;;;25.90;89.72;100561.09;5031071;28;20196;-69
2022/06/18 06:00:16;;;;;;;3.42;2.90;;;;;;;25.23;93.12;100560.13;5031446;28;20203;-68
2022/06/18 06:02:43;;;;;;;2.45;2.30;;;;;;;25.63;90.57;100560.38;5011678;28;20230;-69
2022/06/18 06:05:10;;;;;;;4.28;3.17;;;;;;;25.45;90.14;100524.75;5031297;28;20204;-67
2022/06/18 06:07:38;;;;;;;2.92;2.72;;;;;;;26.12;85.37;100561.94;5030269;28;20277;-68
2022/06/18 06:13:04;;;;;;;4.63;2.20;;;;;;;25.12;84.67;100526.91;5026839;28;20307;-68
2022/06/18 06:15:31;;;;;;;3.85;3.40;;;;;;;25.55;82.35;100570.44;5026975;28;20236;-67
2022/06/18 06:17:57;;;;;;;6.75;2.58;;;;;;;25.54;82.57;100574.03;5027235;28;20207;-67
2022/06/18 06:20:28;;;;;;;2.78;2.58;;;;;;;25.79;76.49;100571.28;5026761;28;20674;-67
2022/06/18 06:22:56;;;;;;;3.42;2.80;;;;;;;25.35;80.32;100554.38;5027714;28;20287;-67
2022/06/18 06:25:23;;;;;;;3.15;2.95;;;;;;;25.04;86.51;100558.16;5026718;28;20203;-66
2022/06/18 06:27:50;;;;;;;4.53;3.03;;;;;;;24.41;87.50;100571.00;5027207;28;20204;-66
2022/06/18 06:30:17;;;;;;;4.38;3.25;;;;;;;24.51;91.66;100559.19;5007745;28;20204;-67
2022/06/18 06:32:44;;;;;;;3.97;3.55;;;;;;;24.60;91.45;100558.88;5027006;28;20231;-67
2022/06/18 06:35:12;;;;;;;4.80;3.00;;;;;;;24.05;90.52;100560.69;5027284;28;20251;-67
2022/06/18 06:37:39;;;;;;;4.82;2.78;;;;;;;23.67;93.06;100561.91;5026848;28;20326;-67
2022/06/18 06:40:09;;;;;;;4.25;2.58;;;;;;;24.06;92.97;100557.13;5028822;28;20211;-67
2022/06/18 06:42:44;;;;;;;3.03;2.70;;;;;;;24.41;88.40;100557.75;5032286;28;20218;-67
2022/06/18 06:45:13;;;;;;;3.63;3.17;;;;;;;24.04;91.77;100563.41;5019420;28;20214;-66
2022/06/18 06:47:40;;;;;;;2.97;2.38;;;;;;;23.85;89.50;100551.66;5026950;28;20204;-68
2022/06/18 06:50:08;;;;;;;2.72;2.03;;;;;;;23.47;91.37;100563.44;5007560;28;20208;-67
2022/06/18 06:52:35;;;;;;;4.13;2.85;;;;;;;23.73;89.71;100558.19;5007182;28;20657;-67
2022/06/18 06:57:48;;;;;;;3.97;3.08;;;;;;;24.18;89.85;100570.03;5026592;28;20203;-68
2022/06/18 07:00:15;;;;;;;2.78;2.50;;;;;;;23.89;89.05;100564.75;5018732;28;20209;-67
2022/06/18 07:02:43;;;;;;;3.30;3.08;;;;;;;24.18;90.74;100571.81;5020955;28;20204;-68
2022/06/18 07:05:13;;;;;;;3.88;2.80;;;;;;;23.93;88.73;100552.28;5027208;28;20216;-67
2022/06/18 07:07:40;;;;;;;2.40;2.25;;;;;;;23.29;90.25;100562.19;5031753;28;20215;-68
2022/06/18 07:10:08;;;;;;;3.75;2.65;;;;;;;23.69;90.49;100569.78;5026851;28;20212;-67
2022/06/18 07:12:36;;;;;;;3.25;2.90;;;;;;;23.66;93.30;100575.19;5026651;28;20216;-67
2022/06/18 07:15:05;;;;;;;2.70;2.33;;;;;;;23.44;91.21;100566.16;5027179;28;20255;-68
2022/06/18 07:17:33;;;;;;;2.92;2.83;;;;;;;23.66;91.82;100572.53;4991360;28;20232;-67
2022/06/18 07:20:00;;;;;;;2.15;2.00;;;;;;;23.53;89.18;100572.06;5026725;28;20657;-66
2022/06/18 07:22:27;;;;;;;3.20;2.88;;;;;;;24.15;90.57;100577.22;5026934;28;20216;-67
2022/06/18 07:24:55;;;;;;;2.92;2.70;;;;;;;24.12;86.90;100567.53;4991034;28;20196;-65
2022/06/18 07:27:22;;;;;;;3.00;2.72;;;;;;;24.06;87.22;100566.84;5026654;28;20278;-66
2022/06/18 07:29:49;;;;;;;3.00;2.78;;;;;;;24.08;87.78;100581.78;5026039;28;20223;-66
2022/06/18 07:32:19;;;;;;;2.80;2.60;;;;;;;24.39;88.15;100591.44;5026666;28;20707;-65
2022/06/18 07:34:47;;;;;;;2.83;2.60;;;;;;;24.39;90.82;100594.06;5026866;28;20208;-67
2022/06/18 07:37:14;;;;;;;2.58;2.38;;;;;;;24.36;87.99;100591.53;5026309;28;20236;-68
2022/06/18 07:39:40;;;;;;;3.03;2.72;;;;;;;24.07;86.30;100531.50;5027359;28;20208;-67
2022/06/18 07:42:08;;;;;;;2.85;2.55;;;;;;;24.46;83.85;100592.94;5030242;28;20208;-67
2022/06/18 07:44:35;;;;;;;1.65;1.55;;;;;;;24.12;82.16;100587.84;5011408;28;20211;-67
2022/06/18 07:47:02;;;;;;;7.50;2.42;;;;;;;24.01;84.51;100588.19;5027371;28;20203;-67
2022/06/18 07:49:31;;;;;;;3.05;2.80;;;;;;;24.45;83.60;100601.81;5027408;28;20216;-67
2022/06/18 07:51:58;;;;;;;3.05;2.67;;;;;;;24.46;83.23;100592.94;5030405;28;20219;-67
2022/06/18 07:54:25;;;;;;;2.53;2.33;;;;;;;24.67;79.72;100592.22;5030096;28;20595;-67
2022/06/18 07:56:52;;;;;;;2.42;2.20;;;;;;;24.50;80.61;100600.75;5011065;28;20230;-67
2022/06/18 07:59:19;;;;;;;4.55;3.00;;;;;;;24.30;81.10;100594.38;5029331;28;20216;-68
2022/06/18 08:01:46;;;;;;;2.80;2.55;;;;;;;24.57;80.99;100591.69;5029704;28;20247;-67
2022/06/18 08:04:13;;;;;;;2.50;2.28;;;;;;;24.69;79.23;100591.25;5029719;28;20620;-67
2022/06/18 08:06:41;;;;;;;2.35;2.25;;;;;;;24.97;78.87;100593.81;5029432;28;20227;-67
2022/06/18 08:09:08;;;;;;;3.63;2.47;;;;;;;24.39;80.88;100597.59;5029355;28;20211;-67
2022/06/18 08:11:37;;;;;;;2.70;2.28;;;;;;;24.54;79.08;100599.72;5028764;28;20215;-65
2022/06/18 08:14:05;;;;;;;5.80;2.28;;;;;;;24.38;81.70;100592.34;5016541;28;20230;-66
2022/06/18 08:16:32;;;;;;;1.80;1.67;;;;;;;23.97;83.87;100588.38;5029829;28;20235;-71
2022/06/18 08:18:59;;;;;;;6.13;3.03;;;;;;;24.41;82.95;100584.28;5029234;28;20200;-68
2022/06/18 08:21:29;;;;;;;2.35;2.25;;;;;;;24.50;83.03;100591.94;5029298;28;20215;-67
2022/06/18 08:24:02;;;;;;;3.00;2.80;;;;;;;24.61;82.97;100593.28;5029747;28;20204;-66
2022/06/18 08:26:30;;;;;;;6.57;2.55;;;;;;;24.59;84.75;100591.59;5029536;28;20208;-66
2022/06/18 08:28:57;;;;;;;3.88;2.65;;;;;;;24.78;82.86;100547.63;5028879;28;20220;-67
2022/06/18 08:31:24;;;;;;;2.50;2.30;;;;;;;24.82;78.41;100591.69;5029199;28;20281;-67
2022/06/18 08:33:51;;;;;;;4.63;2.88;;;;;;;25.04;80.27;100581.22;5029103;28;20606;-66
2022/06/18 08:36:18;;;;;;;2.65;2.55;;;;;;;25.55;77.90;100589.03;5029473;28;20238;-66
2022/06/18 08:38:47;;;;;;;3.08;2.88;;;;;;;25.77;73.30;100589.06;5028887;28;20219;-67
2022/06/18 08:41:48;;;;;;;60.90;4.82;;;;;;;25.39;73.00;100587.88;5022245;28;20692;-66
2022/06/18 08:44:50;;;;;;;2.00;1.80;;;;;;;25.44;79.17;100586.75;5029501;28;20674;-66
2022/06/18 08:47:31;;;;;;;5.30;2.90;;;;;;;25.76;75.83;100579.34;4962225;28;20206;-64
2022/06/18 08:50:13;;;;;;;2.90;2.22;;;;;;;25.20;77.06;100554.94;4955566;28;20217;-70
2022/06/18 08:52:56;;;;;;;2.60;2.50;;;;;;;25.51;76.21;100577.66;4958291;28;20207;-66
2022/06/18 08:55:33;;;;;;;2.60;2.20;;;;;;;25.75;75.64;100567.88;4967583;28;21160;-70
2022/06/18 08:58:10;;;;;;;2.42;2.22;;;;;;;25.70;70.08;100567.19;4967292;28;20602;-67
2022/06/18 09:00:45;;;;;;;2.30;2.10;;;;;;;25.96;70.55;100569.69;4959714;28;20221;-66
2022/06/18 09:03:24;;;;;;;4.93;2.35;;;;;;;25.97;67.08;100555.44;4966286;28;20228;-67
2022/06/18 09:06:03;;;;;;;3.25;2.10;;;;;;;25.57;71.10;100576.56;4967338;28;20205;-67
2022/06/18 09:08:49;;;;;;;5.40;2.50;;;;;;;25.49;73.60;100578.63;4958615;28;20225;-66
2022/06/18 09:11:27;;;;;;;2.13;2.03;;;;;;;25.48;72.10;100585.72;4965912;28;20202;-67
2022/06/18 09:14:01;;;;;;;2.15;2.05;;;;;;;25.34;70.83;100579.19;4966936;28;20237;-70
2022/06/18 09:16:35;;;;;;;4.53;2.25;;;;;;;25.48;70.36;100579.53;4965586;28;20240;-68
2022/06/18 09:19:05;;;;;;;2.65;2.45;;;;;;;25.46;69.40;100568.13;4961669;28;20210;-68
2022/06/18 09:21:38;;;;;;;12.98;3.55;;;;;;;25.70;69.21;100572.50;4959731;28;20206;-66
2022/06/18 09:24:06;;;;;;;2.78;2.30;;;;;;;26.55;70.39;100553.06;4970864;28;20257;-68
2022/06/18 09:26:38;;;;;;;1.95;1.85;;;;;;;26.26;62.16;100574.69;5028304;28;20207;-70
2022/06/18 09:29:13;;;;;;;2.17;2.00;;;;;;;26.23;63.98;100566.84;5028380;28;20211;-68
2022/06/18 09:31:47;;;;;;;2.50;2.20;;;;;;;26.07;61.33;100571.91;5028160;28;20318;-66
2022/06/18 09:34:22;;;;;;;2.60;2.40;;;;;;;26.30;64.01;100563.88;5028260;28;20204;-67
2022/06/18 09:36:54;;;;;;;2.65;2.10;;;;;;;25.84;62.47;100551.56;5028237;28;20258;-67
2022/06/18 09:39:25;;;;;;;5.78;2.33;;;;;;;26.43;62.83;100567.72;5027856;28;20207;-67
2022/06/18 09:42:01;;;;;;;3.08;1.75;;;;;;;26.09;61.98;100560.28;5028078;28;20291;-65
2022/06/18 09:44:37;;;;;;;2.40;2.20;;;;;;;26.41;60.81;100560.75;4985326;28;20203;-66
2022/06/18 09:47:09;;;;;;;2.10;2.00;;;;;;;26.37;62.15;100565.34;5027970;28;20208;-66
2022/06/18 09:49:36;;;;;;;3.15;2.20;;;;;;;26.47;61.12;100550.72;5027547;28;20212;-66
2022/06/18 09:52:08;;;;;;;2.20;2.00;;;;;;;26.84;62.10;100558.00;5027508;28;20287;-66
2022/06/18 09:54:38;;;;;;;3.22;2.35;;;;;;;26.67;59.40;100567.63;5027992;28;20211;-67
2022/06/18 09:57:05;;;;;;;2.63;2.42;;;;;;;26.55;60.07;100569.00;5027818;28;20231;-67
2022/06/18 09:59:36;;;;;;;4.47;2.38;;;;;;;26.96;59.60;100544.16;5027550;28;20216;-65
2022/06/18 10:02:03;;;;;;;1.90;1.80;;;;;;;26.44;56.76;100561.50;5004959;28;20209;-66
2022/06/18 10:07:20;;;;;;;2.03;1.92;;;;;;;26.57;58.86;100543.22;5027240;28;20215;-68
2022/06/18 10:09:50;;;;;;;2.17;2.08;;;;;;;26.59;58.14;100552.88;4991819;28;20258;-68
2022/06/18 10:12:22;;;;;;;1.75;1.67;;;;;;;26.60;57.40;100559.06;5026864;28;20212;-69
2022/06/18 10:14:54;;;;;;;2.90;2.38;;;;;;;26.72;56.80;100550.50;5027455;28;20233;-69
2022/06/18 10:17:50;;;;;;;3.10;2.78;;;;;;;26.80;56.70;100559.03;4989725;28;20235;-70
2022/06/18 10:20:23;;;;;;;2.03;1.65;;;;;;;26.49;54.04;100558.66;5026945;28;20208;-66
2022/06/18 10:23:01;;;;;;;3.10;1.60;;;;;;;26.70;54.26;100563.03;5027151;28;20212;-66
2022/06/18 10:25:36;;;;;;;3.17;2.10;;;;;;;26.93;54.57;100543.44;5027409;28;20212;-67
2022/06/18 10:28:13;;;;;;;1.95;1.85;;;;;;;27.30;53.74;100537.28;5027038;28;20210;-69
2022/06/18 10:30:54;;;;;;;3.38;2.05;;;;;;;27.35;52.05;100503.31;5007703;28;20196;-68
2022/06/18 10:33:31;;;;;;;2.58;1.92;;;;;;;27.93;52.46;100549.38;5027328;28;20219;-67
2022/06/18 10:36:08;;;;;;;2.90;2.10;;;;;;;27.93;53.02;100544.88;5026674;28;20236;-67
2022/06/18 10:39:07;;;;;;;6.28;1.90;;;;;;;28.01;50.12;100552.50;5027170;28;20227;-68
2022/06/18 10:41:47;;;;;;;1.85;1.75;;;;;;;27.77;50.28;100541.25;4903927;29;20219;-67
2022/06/18 10:44:24;;;;;;;2.03;1.80;;;;;;;27.74;52.87;100537.88;4908623;29;20215;-67
2022/06/18 10:47:03;;;;;;;1.90;1.80;;;;;;;27.53;50.16;100545.09;4907523;29;20215;-67
2022/06/18 10:49:31;;;;;;;2.85;1.67;;;;;;;27.39;49.58;100531.53;4888469;29;20212;-67
2022/06/18 10:52:00;;;;;;;1.90;1.80;;;;;;;27.81;49.61;100534.84;4904144;29;20204;-67
2022/06/18 10:54:32;;;;;;;2.30;1.52;;;;;;;27.91;50.23;100520.13;4908426;29;20243;-67
2022/06/18 10:56:58;;;;;;;2.35;1.70;;;;;;;27.04;48.48;100530.50;4905559;29;20314;-67
2022/06/18 10:59:31;;;;;;;1.95;1.85;;;;;;;27.41;49.85;100529.66;4905774;29;20795;-67
2022/06/18 11:02:14;;;;;;;1.58;1.50;;;;;;;27.26;49.29;100525.03;4907490;29;20696;-68
2022/06/18 11:04:42;;;;;;;1.35;1.35;;;;;;;27.46;48.54;100528.53;4905074;29;20673;-68
2022/06/18 11:07:13;;;;;;;1.98;1.80;;;;;;;27.41;49.01;100534.97;4873386;29;20209;-69
2022/06/18 11:09:55;;;;;;;3.00;1.73;;;;;;;28.02;47.54;100530.25;4904246;29;20231;-68
2022/06/18 11:12:23;;;;;;;2.47;1.58;;;;;;;27.73;48.18;100513.03;4872858;29;20207;-67
2022/06/18 11:14:50;;;;;;;2.22;1.67;;;;;;;27.81;48.52;100521.50;4902373;29;20250;-69
2022/06/18 11:17:28;;;;;;;1.50;1.50;;;;;;;27.59;46.84;100500.38;4910863;29;20223;-69
2022/06/18 11:20:06;;;;;;;2.78;1.60;;;;;;;27.69;46.17;100487.47;5019378;28;20307;-68
2022/06/18 11:22:33;;;;;;;1.63;1.58;;;;;;;28.05;47.23;100514.09;5030324;28;20680;-69
2022/06/18 11:25:02;;;;;;;1.45;1.45;;;;;;;28.20;46.05;100523.16;5026321;28;20204;-69
2022/06/18 11:27:33;;;;;;;1.80;1.70;;;;;;;27.91;45.39;100522.78;5030343;28;20212;-68
2022/06/18 11:30:00;;;;;;;1.75;1.65;;;;;;;27.78;45.83;100497.69;5021972;28;20203;-68
2022/06/18 11:32:35;;;;;;;1.40;1.30;;;;;;;28.18;45.30;100515.25;5030387;28;20219;-67
2022/06/18 11:35:07;;;;;;;2.22;1.90;;;;;;;28.56;45.99;100513.28;5021609;28;20203;-68
2022/06/18 11:37:34;;;;;;;2.45;1.60;;;;;;;28.42;45.43;100502.47;5027895;28;20259;-67
2022/06/18 11:40:16;;;;;;;1.85;1.60;;;;;;;28.11;44.90;100504.97;5034586;28;20207;-68
2022/06/18 11:42:48;;;;;;;1.63;1.63;;;;;;;28.50;46.69;100493.09;5029591;28;20266;-67
2022/06/18 11:45:28;;;;;;;2.28;1.80;;;;;;;28.84;44.95;100510.91;5030408;28;20204;-67
2022/06/18 11:48:03;;;;;;;1.80;1.70;;;;;;;28.69;45.82;100508.19;5029981;28;20211;-67
2022/06/18 11:50:34;;;;;;;2.70;1.60;;;;;;;28.70;45.11;100500.09;5029452;28;20207;-67